Time;durP1;ratioP1;P1;durP2;ratioP2;P2;SDS_P1;SDS_P2;PMS_P1;PMS_P2;Temp;Humidity;BMP_temperature;BMP_pressure;BME280_temperature;BME280_humidity;BME280_pressure;Samples;Min_cycle;Max_cycle;Signal;HPM_P1;HPM_P2
2022/11/05 00:09:46;;;;;;;12.10;7.90;;;9.00;99.90;;;;;;5113730;28;20460;-73
2022/11/05 00:17:42;;;;;;;12.93;9.17;;;8.90;99.90;;;;;;5113635;28;20921;-73
2022/11/05 00:20:12;;;;;;;9.50;7.03;;;8.80;99.90;;;;;;5113280;28;20442;-73
2022/11/05 00:25:22;;;;;;;9.50;7.03;;;8.70;99.90;;;;;;5113401;28;20768;-73
2022/11/05 00:27:52;;;;;;;13.07;6.60;;;8.70;99.90;;;;;;5113460;28;20398;-73
2022/11/05 00:30:23;;;;;;;11.90;6.60;;;8.60;99.90;;;;;;5113170;28;20212;-73
2022/11/05 00:32:50;;;;;;;8.23;6.50;;;8.60;99.90;;;;;;5113401;28;20407;-73
2022/11/05 00:35:17;;;;;;;10.43;8.10;;;8.50;99.90;;;;;;5112462;28;20816;-73
2022/11/05 00:37:43;;;;;;;15.90;7.90;;;8.50;99.90;;;;;;5113044;28;20418;-73
2022/11/05 00:40:11;;;;;;;12.17;7.87;;;8.50;99.90;;;;;;5112888;28;20434;-73
2022/11/05 00:45:23;;;;;;;15.53;7.30;;;8.40;99.90;;;;;;5113100;28;20406;-73
2022/11/05 00:50:33;;;;;;;13.87;8.13;;;8.30;99.90;;;;;;5112570;28;20196;-73
2022/11/05 00:52:59;;;;;;;10.40;7.60;;;8.30;99.90;;;;;;5112779;28;20423;-73
2022/11/05 00:55:32;;;;;;;17.17;8.03;;;8.20;99.90;;;;;;5112642;28;20165;-73
2022/11/05 00:57:58;;;;;;;14.13;8.20;;;8.20;99.90;;;;;;5113018;28;20896;-73
2022/11/05 01:00:26;;;;;;;16.23;9.07;;;8.20;99.90;;;;;;5112850;28;20510;-72
2022/11/05 01:02:51;;;;;;;11.33;7.93;;;8.10;99.90;;;;;;5112557;28;20504;-73
2022/11/05 01:05:17;;;;;;;10.80;8.17;;;8.10;99.90;;;;;;5112539;28;20410;-72
2022/11/05 01:07:43;;;;;;;23.43;8.77;;;8.10;99.90;;;;;;5112800;28;20579;-72
2022/11/05 01:10:08;;;;;;;9.50;8.50;;;8.10;99.90;;;;;;5112702;28;20180;-72
2022/11/05 01:12:34;;;;;;;14.70;7.70;;;8.10;99.90;;;;;;5112693;28;20197;-72
2022/11/05 01:15:00;;;;;;;11.07;8.07;;;8.10;99.90;;;;;;5112198;28;20169;-73
2022/11/05 01:17:26;;;;;;;15.03;10.00;;;8.00;99.90;;;;;;5112729;28;20408;-73
2022/11/05 01:19:51;;;;;;;13.93;8.73;;;8.00;99.90;;;;;;5112224;28;20526;-73
2022/11/05 01:22:17;;;;;;;11.63;8.37;;;8.00;99.90;;;;;;5111153;28;20196;-73
2022/11/05 01:24:42;;;;;;;13.90;7.77;;;8.00;99.90;;;;;;5111821;28;20629;-73
2022/11/05 01:27:08;;;;;;;12.40;7.33;;;7.90;99.90;;;;;;5112561;28;20204;-73
2022/11/05 01:29:33;;;;;;;7.63;6.77;;;7.90;99.90;;;;;;5111185;28;20272;-73
2022/11/05 01:31:59;;;;;;;13.10;7.53;;;7.90;99.90;;;;;;5112507;28;20161;-73
2022/11/05 01:34:24;;;;;;;7.70;6.90;;;7.90;99.90;;;;;;5112134;28;20176;-73
2022/11/05 01:36:50;;;;;;;10.20;7.57;;;7.90;99.90;;;;;;5111590;28;20543;-73
2022/11/05 01:39:15;;;;;;;13.50;8.23;;;7.90;99.90;;;;;;5112215;28;20176;-73
2022/11/05 01:41:41;;;;;;;10.50;8.00;;;7.90;99.90;;;;;;5112386;28;20161;-73
2022/11/05 01:44:46;;;;;;;15.50;9.10;;;7.90;99.90;;;;;;5112248;28;20194;-73
2022/11/05 01:47:39;;;;;;;16.53;7.93;;;7.90;99.90;;;;;;5112327;28;20156;-73
2022/11/05 01:50:33;;;;;;;13.10;7.33;;;7.90;99.90;;;;;;5111428;28;20939;-73
2022/11/05 01:53:04;;;;;;;9.27;7.37;;;7.80;99.90;;;;;;5112280;28;20406;-73
2022/11/05 01:55:35;;;;;;;11.00;6.93;;;7.80;99.90;;;;;;5111593;28;20481;-73
2022/11/05 01:58:02;;;;;;;8.77;7.17;;;7.80;99.90;;;;;;5112397;28;20430;-73
2022/11/05 02:00:28;;;;;;;10.23;6.63;;;7.80;99.90;;;;;;5112001;28;20422;-72
2022/11/05 02:02:53;;;;;;;10.07;6.00;;;7.80;99.90;;;;;;5110829;28;20508;-72
2022/11/05 02:05:19;;;;;;;9.50;6.60;;;7.80;99.90;;;;;;5111945;28;20165;-73
2022/11/05 02:07:46;;;;;;;9.80;6.40;;;7.80;99.90;;;;;;5112185;28;20173;-73
2022/11/05 02:10:13;;;;;;;7.97;5.37;;;7.80;99.90;;;;;;5111943;28;20443;-73
2022/11/05 02:12:43;;;;;;;9.27;5.40;;;7.80;99.90;;;;;;5111859;28;20417;-72
2022/11/05 02:15:14;;;;;;;11.97;6.43;;;7.80;99.90;;;;;;5111798;28;20421;-73
2022/11/05 02:17:58;;;;;;;9.53;5.87;;;7.90;99.90;;;;;;5112068;28;20430;-73
2022/11/05 02:20:28;;;;;;;11.50;6.10;;;7.90;99.90;;;;;;5110761;28;20654;-73
2022/11/05 02:23:05;;;;;;;11.70;6.37;;;8.00;99.90;;;;;;5111856;28;20454;-73
2022/11/05 02:25:49;;;;;;;9.10;5.63;;;8.00;99.90;;;;;;5111424;28;20539;-73
2022/11/05 02:28:36;;;;;;;6.60;5.23;;;8.10;99.90;;;;;;5111935;28;20406;-73
2022/11/05 02:31:19;;;;;;;6.60;4.80;;;8.10;99.90;;;;;;5111839;28;20464;-73
2022/11/05 02:34:02;;;;;;;7.80;4.10;;;8.20;99.90;;;;;;5111904;28;20406;-73
2022/11/05 02:36:32;;;;;;;5.33;3.77;;;8.20;99.90;;;;;;5110084;28;20419;-73
2022/11/05 02:39:22;;;;;;;6.97;4.53;;;8.20;99.90;;;;;;5111894;28;20406;-73
2022/11/05 02:42:10;;;;;;;5.70;4.50;;;8.20;99.90;;;;;;5111821;28;20434;-73
2022/11/05 02:45:00;;;;;;;8.43;4.73;;;8.30;99.90;;;;;;5111414;28;20495;-73
2022/11/05 02:47:46;;;;;;;7.07;3.80;;;8.30;99.90;;;;;;5110330;28;20407;-73
2022/11/05 02:50:34;;;;;;;6.07;3.30;;;8.40;99.90;;;;;;5114456;28;20418;-73
2022/11/05 02:53:07;;;;;;;5.80;3.53;;;8.40;99.90;;;;;;5115396;28;20395;-73
2022/11/05 02:55:37;;;;;;;7.63;5.23;;;8.50;99.90;;;;;;5115028;28;20447;-73
2022/11/05 02:58:04;;;;;;;11.90;7.50;;;8.60;99.90;;;;;;5113936;28;20406;-73
2022/11/05 03:00:48;;;;;;;10.40;7.23;;;8.60;99.90;;;;;;5114878;28;20442;-73
2022/11/05 03:03:16;;;;;;;11.73;7.93;;;8.60;99.90;;;;;;5114882;28;20458;-73
2022/11/05 03:06:00;;;;;;;10.57;8.33;;;8.60;99.90;;;;;;5114592;28;20399;-73
2022/11/05 03:09:04;;;;;;;11.20;7.10;;;8.60;99.90;;;;;;5115049;28;20938;-73
2022/11/05 03:11:33;;;;;;;11.63;5.73;;;8.50;99.90;;;;;;5114904;28;21100;-73
2022/11/05 03:14:11;;;;;;;6.80;5.30;;;8.40;99.90;;;;;;5114949;28;20459;-73
2022/11/05 03:16:42;;;;;;;11.20;6.97;;;8.40;99.90;;;;;;5114711;28;20398;-73
2022/11/05 03:19:38;;;;;;;10.57;6.17;;;8.20;99.90;;;;;;5114804;28;20402;-73
2022/11/05 03:22:08;;;;;;;9.23;5.20;;;8.10;99.90;;;;;;5114824;28;20947;-73
2022/11/05 03:24:37;;;;;;;9.87;5.70;;;8.00;99.90;;;;;;5112844;28;20533;-73
2022/11/05 03:27:11;;;;;;;7.53;4.73;;;7.90;99.90;;;;;;5114732;28;20407;-73
2022/11/05 03:29:41;;;;;;;8.67;5.03;;;7.90;99.90;;;;;;5113291;28;20936;-73
2022/11/05 03:32:09;;;;;;;8.17;5.73;;;7.90;99.90;;;;;;5114678;28;20436;-73
2022/11/05 03:34:41;;;;;;;11.83;6.20;;;7.80;99.90;;;;;;5114084;28;20813;-72
2022/11/05 03:37:08;;;;;;;11.07;7.07;;;7.80;99.90;;;;;;5114414;28;20402;-72
2022/11/05 03:39:41;;;;;;;12.63;6.60;;;7.80;99.90;;;;;;5114235;27;20426;-73
2022/11/05 03:42:11;;;;;;;13.63;6.63;;;7.70;99.90;;;;;;5114472;28;20407;-73
2022/11/05 03:44:44;;;;;;;14.70;6.77;;;7.60;99.90;;;;;;5114064;28;20819;-73
2022/11/05 03:47:16;;;;;;;11.03;6.80;;;7.50;99.90;;;;;;5114123;28;20782;-73
2022/11/05 03:49:57;;;;;;;12.60;7.20;;;7.40;99.90;;;;;;5114181;28;20423;-73
2022/11/05 03:52:30;;;;;;;12.60;8.20;;;7.40;99.90;;;;;;5114230;28;20398;-73
2022/11/05 03:54:56;;;;;;;11.87;8.10;;;7.40;99.90;;;;;;5113816;28;20500;-73
2022/11/05 03:57:28;;;;;;;14.37;8.37;;;7.40;99.90;;;;;;5114195;28;20434;-73
2022/11/05 03:59:53;;;;;;;14.90;7.80;;;7.40;99.90;;;;;;5113576;28;20201;-73
2022/11/05 04:02:24;;;;;;;11.53;6.87;;;7.40;99.90;;;;;;5114096;28;20406;-73
2022/11/05 04:04:50;;;;;;;9.27;6.90;;;7.40;99.90;;;;;;5113571;28;20189;-73
2022/11/05 04:17:05;;;;;;;19.33;7.20;;;7.10;99.90;;;;;;5113534;28;20424;-73
2022/11/05 04:18:16;;;;;;;11.63;8.30;;;7.10;99.90;;;;;;5113576;28;20788;-72
2022/11/05 04:26:09;;;;;;;57.63;33.13;;;7.00;99.90;;;;;;5113295;28;20397;-73
2022/11/05 04:31:19;;;;;;;13.47;7.50;;;7.00;99.90;;;;;;5113410;28;20195;-73
2022/11/05 04:33:44;;;;;;;12.70;8.17;;;7.10;99.90;;;;;;5113313;28;20489;-72
2022/11/05 04:36:10;;;;;;;13.13;7.77;;;7.10;99.90;;;;;;5112645;28;20690;-73
2022/11/05 04:38:35;;;;;;;12.20;7.40;;;7.10;99.90;;;;;;5113180;28;20173;-73
2022/11/05 04:41:16;;;;;;;14.90;8.27;;;7.10;99.90;;;;;;5113107;28;20235;-73
2022/11/05 04:43:42;;;;;;;12.57;8.20;;;7.20;99.90;;;;;;5111820;28;20208;-72
2022/11/05 04:46:09;;;;;;;15.00;9.27;;;7.20;99.90;;;;;;5112935;28;20499;-73
2022/11/05 04:48:34;;;;;;;17.33;10.10;;;7.30;99.90;;;;;;5112916;28;20426;-73
2022/11/05 04:51:00;;;;;;;29.40;15.80;;;7.40;99.90;;;;;;5112992;28;20419;-73
2022/11/05 04:53:26;;;;;;;35.83;22.00;;;7.40;99.90;;;;;;5111833;28;20438;-72
2022/11/05 04:55:51;;;;;;;12.83;9.57;;;7.40;99.90;;;;;;5112710;28;20251;-72
2022/11/05 04:58:17;;;;;;;11.33;8.10;;;7.40;99.90;;;;;;5112954;28;20165;-72
2022/11/05 05:00:42;;;;;;;17.77;9.50;;;7.30;99.90;;;;;;5112647;28;20246;-73
2022/11/05 05:03:08;;;;;;;15.90;10.70;;;7.30;99.90;;;;;;5112772;28;20332;-73
2022/11/05 05:05:34;;;;;;;20.07;10.27;;;7.30;99.90;;;;;;5112557;28;20179;-73
2022/11/05 05:08:04;;;;;;;20.10;10.60;;;7.20;99.90;;;;;;5111528;28;20165;-72
2022/11/05 05:10:30;;;;;;;13.03;9.83;;;7.20;99.90;;;;;;5112728;28;20181;-73
2022/11/05 05:12:56;;;;;;;16.87;9.80;;;7.20;99.90;;;;;;5111912;28;20421;-73
2022/11/05 05:15:22;;;;;;;17.63;10.37;;;7.20;99.90;;;;;;5112382;28;20406;-73
2022/11/05 05:17:51;;;;;;;16.77;11.90;;;7.20;99.90;;;;;;5112587;28;20173;-73
2022/11/05 05:23:02;;;;;;;15.80;9.80;;;7.10;99.90;;;;;;5112436;28;20523;-72
2022/11/05 05:25:28;;;;;;;16.77;10.37;;;7.00;99.90;;;;;;5110796;28;20423;-73
2022/11/05 05:27:56;;;;;;;15.97;8.90;;;6.90;99.90;;;;;;5112523;28;20436;-73
2022/11/05 05:30:22;;;;;;;18.90;12.17;;;6.90;99.90;;;;;;5112454;28;20780;-72
2022/11/05 05:32:47;;;;;;;19.80;11.53;;;6.90;99.90;;;;;;5112450;28;20409;-73
2022/11/05 05:35:13;;;;;;;40.90;24.90;;;6.90;99.90;;;;;;5112132;28;20173;-73
2022/11/05 05:37:39;;;;;;;31.50;17.10;;;6.80;99.90;;;;;;5112311;28;20541;-73
2022/11/05 05:40:05;;;;;;;21.60;12.53;;;6.80;99.90;;;;;;5112234;28;20200;-72
2022/11/05 05:42:30;;;;;;;20.10;10.23;;;6.80;99.90;;;;;;5112342;28;20168;-72
2022/11/05 05:44:56;;;;;;;15.87;9.00;;;6.80;99.90;;;;;;5111987;28;20799;-72
2022/11/05 05:47:21;;;;;;;16.27;10.20;;;6.80;99.90;;;;;;5112358;28;20168;-73
2022/11/05 05:49:47;;;;;;;22.10;10.10;;;6.90;99.90;;;;;;5111922;28;20257;-73
2022/11/05 05:52:12;;;;;;;17.43;10.17;;;6.90;99.90;;;;;;5112351;28;20248;-72
2022/11/05 05:54:38;;;;;;;20.00;11.00;;;6.90;99.90;;;;;;5112008;28;20234;-72
2022/11/05 05:57:03;;;;;;;19.67;10.60;;;6.90;99.90;;;;;;5112445;28;20173;-77
2022/11/05 05:59:29;;;;;;;15.77;9.80;;;6.90;99.90;;;;;;5112161;28;20188;-73
2022/11/05 06:01:54;;;;;;;19.67;11.20;;;7.00;99.90;;;;;;5111785;28;20173;-73
2022/11/05 06:04:20;;;;;;;19.10;9.10;;;7.00;99.90;;;;;;5111771;28;20197;-73
2022/11/05 06:06:45;;;;;;;18.47;10.87;;;6.90;99.90;;;;;;5112154;28;20674;-73
2022/11/05 06:09:12;;;;;;;19.30;11.50;;;7.00;99.90;;;;;;5112280;28;20282;-73
2022/11/05 06:11:37;;;;;;;13.43;9.67;;;6.90;99.90;;;;;;5112149;28;20161;-73
2022/11/05 06:14:03;;;;;;;19.73;10.73;;;6.90;99.90;;;;;;5111862;28;20440;-72
2022/11/05 06:16:33;;;;;;;19.33;11.63;;;6.90;99.90;;;;;;5111850;28;20172;-72
2022/11/05 06:18:58;;;;;;;19.80;11.73;;;6.90;99.90;;;;;;5112086;28;20529;-73
2022/11/05 06:21:24;;;;;;;19.10;9.90;;;7.00;99.90;;;;;;5111857;28;20426;-73
2022/11/05 06:23:49;;;;;;;21.93;10.57;;;7.00;99.90;;;;;;5113921;28;20201;-73
2022/11/05 06:26:16;;;;;;;19.40;11.07;;;7.00;99.90;;;;;;5115663;28;20523;-73
2022/11/05 06:28:43;;;;;;;18.73;10.80;;;7.00;99.90;;;;;;5115918;28;20234;-73
2022/11/05 06:31:09;;;;;;;22.03;11.57;;;7.00;99.90;;;;;;5115787;28;20776;-73
2022/11/05 06:33:35;;;;;;;16.57;9.23;;;7.00;99.90;;;;;;5115608;28;20532;-73
2022/11/05 06:36:03;;;;;;;24.43;12.20;;;7.10;99.90;;;;;;5115332;28;20469;-73
2022/11/05 06:38:32;;;;;;;21.30;12.87;;;7.10;99.90;;;;;;5115664;28;20255;-73
2022/11/05 06:40:58;;;;;;;23.63;11.00;;;7.10;99.90;;;;;;5115563;27;20483;-73
2022/11/05 06:43:24;;;;;;;17.10;9.40;;;7.10;99.90;;;;;;5114307;28;20506;-73
2022/11/05 06:45:50;;;;;;;18.20;11.70;;;7.20;99.90;;;;;;5115280;28;20456;-73
2022/11/05 06:48:15;;;;;;;21.10;10.00;;;7.20;99.90;;;;;;5115193;28;20931;-73
2022/11/05 06:50:45;;;;;;;18.73;10.07;;;7.30;99.90;;;;;;5115384;28;20199;-73
2022/11/05 06:53:10;;;;;;;16.90;8.47;;;7.30;99.90;;;;;;5115305;28;20224;-73
2022/11/05 06:55:36;;;;;;;19.53;10.17;;;7.30;99.90;;;;;;5115171;28;20430;-73
2022/11/05 06:58:01;;;;;;;17.17;10.07;;;7.40;99.90;;;;;;5115340;28;20802;-73
2022/11/05 07:00:27;;;;;;;16.60;9.90;;;7.40;99.90;;;;;;5114979;28;20636;-73
2022/11/05 07:02:54;;;;;;;17.67;9.43;;;7.40;99.90;;;;;;5115162;28;20200;-73
2022/11/05 07:05:21;;;;;;;22.93;11.73;;;7.40;99.90;;;;;;5113628;28;20165;-73
2022/11/05 07:07:46;;;;;;;20.13;10.30;;;7.50;99.90;;;;;;5115215;28;20793;-73
2022/11/05 07:10:15;;;;;;;18.63;9.50;;;7.50;99.90;;;;;;5115002;28;20423;-73
2022/11/05 07:12:41;;;;;;;19.40;10.10;;;7.50;99.90;;;;;;5114799;27;20165;-73
2022/11/05 07:15:07;;;;;;;16.67;10.23;;;7.60;99.90;;;;;;5114726;28;21133;-73
2022/11/05 07:17:33;;;;;;;18.97;9.20;;;7.60;99.90;;;;;;5114802;28;20399;-72
2022/11/05 07:19:58;;;;;;;20.77;9.40;;;7.60;99.90;;;;;;5114825;28;20954;-74
2022/11/05 07:22:24;;;;;;;23.93;10.07;;;7.70;99.90;;;;;;5114862;28;20173;-73
2022/11/05 07:24:49;;;;;;;16.57;9.13;;;7.70;99.90;;;;;;5114219;28;20193;-73
2022/11/05 07:27:15;;;;;;;22.63;10.03;;;7.70;99.90;;;;;;5114758;28;20161;-73
2022/11/05 07:29:41;;;;;;;23.87;8.87;;;7.80;99.90;;;;;;5114661;28;20670;-73
2022/11/05 07:32:07;;;;;;;14.43;9.73;;;7.80;99.90;;;;;;5113350;28;20406;-73
2022/11/05 07:34:32;;;;;;;12.60;9.10;;;7.90;99.90;;;;;;5113521;28;20250;-73
2022/11/05 07:36:58;;;;;;;16.10;8.60;;;7.90;99.90;;;;;;5114456;28;20230;-73
2022/11/05 07:39:23;;;;;;;15.30;8.93;;;8.00;99.90;;;;;;5114343;28;20208;-73
2022/11/05 07:41:51;;;;;;;14.60;8.30;;;8.20;99.90;;;;;;5114446;28;20168;-73
2022/11/05 07:44:17;;;;;;;13.03;8.70;;;8.60;99.90;;;;;;5114123;28;20184;-73
2022/11/05 07:46:42;;;;;;;16.53;8.87;;;9.10;99.90;;;;;;5114372;28;20402;-74
2022/11/05 07:49:08;;;;;;;8.10;6.60;;;9.60;99.90;;;;;;5113959;28;20226;-73
2022/11/05 07:51:34;;;;;;;10.70;8.43;;;10.20;99.90;;;;;;5114255;28;20197;-73
2022/11/05 07:53:59;;;;;;;11.50;5.50;;;10.90;99.90;;;;;;5114019;28;20189;-74
2022/11/05 07:56:25;;;;;;;7.07;5.60;;;11.50;99.90;;;;;;5114016;28;20194;-73
2022/11/05 07:58:50;;;;;;;9.70;6.40;;;12.10;99.90;;;;;;5114228;28;20637;-74
2022/11/05 08:01:16;;;;;;;9.23;5.87;;;12.60;99.90;;;;;;5113538;28;20305;-73
2022/11/05 08:03:41;;;;;;;7.80;5.30;;;13.10;99.90;;;;;;5114101;28;20200;-73
2022/11/05 08:06:07;;;;;;;8.80;6.37;;;13.40;99.90;;;;;;5113728;28;20660;-74
2022/11/05 08:08:32;;;;;;;8.80;4.97;;;13.80;99.90;;;;;;5113897;28;20164;-74
2022/11/05 08:11:06;;;;;;;8.10;5.23;;;14.10;99.90;;;;;;5112811;28;20599;-74
2022/11/05 08:13:33;;;;;;;6.03;4.40;;;14.70;99.90;;;;;;5113297;28;20185;-74
2022/11/05 08:16:00;;;;;;;7.47;4.13;;;15.40;99.90;;;;;;5113510;28;20759;-74
2022/11/05 08:18:30;;;;;;;7.20;4.60;;;16.00;99.90;;;;;;5113703;28;20406;-75
2022/11/05 08:20:58;;;;;;;4.77;4.03;;;16.40;99.90;;;;;;5113624;28;20505;-74
2022/11/05 08:23:23;;;;;;;6.00;3.60;;;16.90;99.90;;;;;;5113634;28;20431;-74
2022/11/05 08:25:49;;;;;;;6.13;4.80;;;17.20;99.90;;;;;;5112835;28;20406;-75
2022/11/05 08:28:14;;;;;;;5.87;3.80;;;17.80;99.90;;;;;;5113512;28;20157;-74
2022/11/05 08:30:40;;;;;;;7.47;4.27;;;18.30;99.90;;;;;;5113435;28;20739;-75
2022/11/05 08:33:09;;;;;;;5.20;4.00;;;18.70;99.90;;;;;;5113118;28;20192;-74
2022/11/05 08:35:35;;;;;;;6.30;3.70;;;19.30;95.20;;;;;;5112894;28;20180;-76
2022/11/05 08:38:03;;;;;;;5.43;3.27;;;19.60;93.60;;;;;;5112075;28;20411;-74
2022/11/05 08:40:31;;;;;;;7.40;3.77;;;19.70;91.00;;;;;;5113233;28;20826;-74
2022/11/05 08:42:58;;;;;;;4.20;2.80;;;19.70;89.20;;;;;;5113325;28;20442;-74
2022/11/05 08:45:25;;;;;;;6.87;4.73;;;19.60;90.10;;;;;;5112657;28;20447;-74
2022/11/05 08:47:56;;;;;;;5.67;3.60;;;19.30;88.00;;;;;;5112244;28;20597;-74
2022/11/05 08:50:22;;;;;;;5.73;3.43;;;18.60;90.30;;;;;;5113395;28;20434;-73
2022/11/05 08:52:47;;;;;;;6.73;3.40;;;18.20;91.90;;;;;;5112825;28;20528;-74
2022/11/05 08:55:17;;;;;;;8.00;4.13;;;18.00;92.40;;;;;;5112775;28;20536;-74
2022/11/05 08:57:45;;;;;;;6.20;3.73;;;17.80;93.20;;;;;;5113130;28;20157;-74
2022/11/05 09:00:11;;;;;;;5.90;3.90;;;17.60;94.40;;;;;;5112943;28;20415;-74
2022/11/05 09:02:36;;;;;;;4.70;3.43;;;17.30;94.90;;;;;;5112834;28;20403;-74
2022/11/05 09:05:02;;;;;;;4.90;3.90;;;17.80;95.90;;;;;;5112600;28;20917;-74
2022/11/05 09:07:28;;;;;;;8.00;3.80;;;18.00;94.40;;;;;;5112859;28;20164;-74
2022/11/05 09:09:53;;;;;;;6.57;3.60;;;17.80;94.50;;;;;;5112804;28;20720;-74
2022/11/05 09:12:19;;;;;;;9.00;4.00;;;17.90;95.90;;;;;;5112742;28;20168;-74
2022/11/05 09:14:44;;;;;;;6.27;3.43;;;18.30;96.30;;;;;;5112186;28;20232;-73
2022/11/05 09:17:16;;;;;;;3.70;3.00;;;18.70;94.60;;;;;;5112486;28;20173;-74
2022/11/05 09:19:42;;;;;;;6.50;3.40;;;19.10;92.60;;;;;;5112668;28;20672;-74
2022/11/05 09:22:07;;;;;;;8.23;3.63;;;19.40;90.10;;;;;;5112673;28;20402;-73
2022/11/05 09:24:33;;;;;;;3.83;3.43;;;19.50;88.90;;;;;;5112224;28;20241;-74
2022/11/05 09:26:58;;;;;;;6.60;3.73;;;18.80;88.70;;;;;;5112379;28;20218;-74
2022/11/05 09:29:24;;;;;;;5.47;3.40;;;18.70;91.30;;;;;;5112508;28;20188;-74
2022/11/05 09:31:49;;;;;;;4.37;3.07;;;18.50;91.30;;;;;;5112385;28;20172;-74
2022/11/05 09:34:15;;;;;;;4.10;2.93;;;18.40;91.40;;;;;;5112096;28;20729;-74
2022/11/05 09:36:40;;;;;;;4.87;3.73;;;18.30;92.00;;;;;;5112454;28;20202;-74
2022/11/05 09:39:06;;;;;;;9.13;4.17;;;18.40;92.30;;;;;;5112193;28;20177;-74
2022/11/05 09:41:38;;;;;;;5.60;4.17;;;18.80;92.60;;;;;;5112433;28;20169;-74
2022/11/05 09:44:14;;;;;;;3.97;3.37;;;19.40;93.50;;;;;;5112448;28;20630;-74
2022/11/05 09:46:45;;;;;;;5.00;3.50;;;20.20;89.20;;;;;;5112444;28;20496;-74
2022/11/05 09:49:38;;;;;;;4.80;3.27;;;20.20;85.70;;;;;;5112372;28;20403;-75
2022/11/05 09:52:09;;;;;;;3.90;2.43;;;20.60;85.50;;;;;;5112282;28;20423;-74
2022/11/05 09:54:34;;;;;;;3.93;3.00;;;20.70;80.80;;;;;;5112061;28;20526;-73
2022/11/05 09:57:02;;;;;;;5.73;2.57;;;20.30;80.20;;;;;;5112249;28;20834;-74
2022/11/05 09:59:43;;;;;;;4.17;2.33;;;20.60;77.50;;;;;;5115844;28;20267;-74
2022/11/05 10:02:19;;;;;;;4.60;2.43;;;21.10;76.50;;;;;;5116382;28;20821;-74
2022/11/05 10:04:49;;;;;;;7.57;3.43;;;22.00;72.30;;;;;;5116147;28;20492;-74
2022/11/05 10:07:19;;;;;;;7.73;4.27;;;22.60;71.20;;;;;;5116391;28;20411;-74
2022/11/05 10:09:47;;;;;;;5.33;2.50;;;23.40;65.50;;;;;;5116257;28;20836;-74
2022/11/05 10:12:27;;;;;;;3.97;2.40;;;23.60;62.10;;;;;;5116270;28;20418;-74
2022/11/05 10:15:25;;;;;;;5.87;2.07;;;23.70;62.20;;;;;;5115656;28;20449;-74
2022/11/05 10:18:08;;;;;;;2.47;2.00;;;24.60;60.80;;;;;;5105011;28;20497;-74
2022/11/05 10:20:36;;;;;;;4.80;2.43;;;25.90;57.80;;;;;;5116013;28;20434;-74
2022/11/05 10:23:10;;;;;;;6.37;3.10;;;26.10;55.00;;;;;;5115928;28;20414;-72
2022/11/05 10:25:40;;;;;;;4.77;2.57;;;25.90;53.50;;;;;;5115637;28;20394;-73
2022/11/05 10:28:08;;;;;;;4.40;2.30;;;25.90;52.90;;;;;;5115603;28;21079;-74
2022/11/05 10:30:34;;;;;;;3.90;2.13;;;25.60;52.80;;;;;;5115849;28;20464;-74
2022/11/05 10:33:03;;;;;;;3.20;2.33;;;24.80;53.00;;;;;;5115873;28;20399;-74
2022/11/05 10:35:32;;;;;;;5.27;2.50;;;24.80;53.20;;;;;;5115515;28;20298;-74
2022/11/05 10:37:57;;;;;;;7.00;2.70;;;24.90;54.00;;;;;;5115596;28;20494;-74
2022/11/05 10:40:43;;;;;;;3.33;2.50;;;24.70;53.00;;;;;;5115501;28;21041;-74
2022/11/05 10:43:11;;;;;;;4.10;2.00;;;24.50;52.40;;;;;;5115720;28;20173;-73
2022/11/05 10:45:36;;;;;;;4.30;1.80;;;24.00;53.40;;;;;;5115320;28;20727;-74
2022/11/05 10:48:29;;;;;;;4.57;1.60;;;23.10;54.40;;;;;;5114263;28;20401;-74
2022/11/05 10:50:55;;;;;;;3.80;2.53;;;23.20;55.60;;;;;;5115275;28;20265;-73
2022/11/05 10:53:53;;;;;;;4.13;2.13;;;23.40;54.30;;;;;;5115325;28;20822;-74
2022/11/05 10:56:34;;;;;;;3.90;2.13;;;23.60;55.10;;;;;;5115195;28;20768;-74
2022/11/05 10:59:00;;;;;;;2.60;1.77;;;24.40;53.70;;;;;;5115415;28;20409;-74
2022/11/05 11:01:27;;;;;;;2.47;1.73;;;24.80;53.60;;;;;;5114988;28;20422;-74
2022/11/05 11:04:06;;;;;;;2.87;2.00;;;24.40;52.70;;;;;;5115116;28;20422;-74
2022/11/05 11:06:36;;;;;;;8.63;2.03;;;25.10;52.90;;;;;;5114992;28;20394;-74
2022/11/05 11:09:06;;;;;;;4.03;2.10;;;25.60;51.50;;;;;;5114444;28;20403;-74
2022/11/05 11:11:40;;;;;;;3.37;1.47;;;25.70;51.20;;;;;;5114820;28;20394;-74
2022/11/05 11:14:21;;;;;;;5.27;2.47;;;25.50;50.80;;;;;;5114591;28;20462;-73
2022/11/05 11:16:50;;;;;;;4.17;3.47;;;25.50;51.50;;;;;;5114989;28;20399;-74
2022/11/05 11:19:35;;;;;;;4.87;2.73;;;26.20;50.80;;;;;;5113592;28;20472;-74
2022/11/05 11:22:03;;;;;;;5.67;2.40;;;27.40;50.90;;;;;;5113670;28;20411;-73
2022/11/05 11:24:50;;;;;;;3.83;2.10;;;28.20;49.40;;;;;;5114473;28;20956;-72
2022/11/05 11:27:25;;;;;;;3.70;1.97;;;29.20;48.20;;;;;;5114568;28;20418;-72
2022/11/05 11:30:00;;;;;;;4.30;2.90;;;28.90;46.30;;;;;;5114690;28;21052;-72
2022/11/05 11:32:37;;;;;;;3.40;2.50;;;28.00;45.80;;;;;;5113707;28;21117;-74
2022/11/05 11:35:04;;;;;;;2.80;1.97;;;26.50;47.10;;;;;;5114421;28;20508;-73
2022/11/05 11:37:34;;;;;;;6.70;2.70;;;24.40;48.90;;;;;;5114392;28;20409;-73
2022/11/05 11:40:22;;;;;;;3.83;2.17;;;22.80;51.30;;;;;;5114585;28;20489;-74
2022/11/05 11:42:52;;;;;;;5.30;2.63;;;21.70;53.20;;;;;;5113906;28;20886;-74
2022/11/05 11:45:28;;;;;;;3.67;2.13;;;20.80;55.20;;;;;;5114119;28;20414;-74
2022/11/05 11:47:55;;;;;;;2.70;1.93;;;20.10;55.60;;;;;;5114448;28;20414;-74
2022/11/05 11:50:39;;;;;;;3.77;2.00;;;19.40;57.20;;;;;;5114199;28;20442;-74
2022/11/05 11:53:22;;;;;;;6.60;1.80;;;19.10;59.10;;;;;;5113811;28;20438;-73
2022/11/05 11:55:54;;;;;;;3.60;2.43;;;18.60;60.80;;;;;;5113925;28;20399;-73
2022/11/05 11:58:34;;;;;;;7.50;2.30;;;18.00;62.90;;;;;;5114181;28;20911;-73
2022/11/05 12:01:16;;;;;;;5.60;2.47;;;17.60;66.80;;;;;;5114120;28;20430;-73
2022/11/05 12:03:46;;;;;;;5.17;2.10;;;17.30;71.00;;;;;;5114011;28;20422;-73
2022/11/05 12:06:45;;;;;;;3.00;2.03;;;17.20;72.50;;;;;;5113799;28;20407;-73
2022/11/05 12:09:39;;;;;;;10.03;5.23;;;17.00;76.90;;;;;;5114139;28;20395;-73
2022/11/05 12:12:13;;;;;;;8.03;3.93;;;16.80;83.10;;;;;;5114067;28;20401;-74
2022/11/05 12:15:00;;;;;;;3.40;1.87;;;16.80;85.70;;;;;;5113284;28;20476;-74
2022/11/05 12:17:48;;;;;;;2.37;1.60;;;16.50;90.00;;;;;;5113901;28;20743;-73
2022/11/05 12:20:39;;;;;;;7.17;2.37;;;16.20;94.40;;;;;;5113633;28;20498;-73
2022/11/05 12:23:14;;;;;;;2.60;1.77;;;16.10;98.20;;;;;;5113298;28;20454;-73
2022/11/05 12:25:46;;;;;;;2.30;1.57;;;16.10;97.80;;;;;;5112542;28;20762;-74
2022/11/05 12:28:23;;;;;;;2.37;1.90;;;15.90;98.70;;;;;;5112424;28;20409;-74
2022/11/05 12:31:09;;;;;;;6.23;2.00;;;15.60;99.90;;;;;;5112752;28;20442;-73
2022/11/05 12:33:50;;;;;;;6.73;2.50;;;15.30;99.90;;;;;;5113285;28;20471;-74
2022/11/05 12:36:19;;;;;;;3.80;1.90;;;15.20;99.90;;;;;;5112949;28;20430;-73
2022/11/05 12:39:12;;;;;;;3.87;2.10;;;15.20;99.90;;;;;;5113153;28;20475;-73
2022/11/05 12:41:54;;;;;;;5.33;4.17;;;15.40;99.90;;;;;;5113058;28;20394;-73
2022/11/05 12:44:55;;;;;;;5.27;3.23;;;15.30;99.90;;;;;;5112577;28;20423;-73
2022/11/05 12:47:24;;;;;;;2.60;1.80;;;15.30;99.90;;;;;;5113021;28;20394;-73
2022/11/05 12:50:01;;;;;;;3.33;2.07;;;15.30;99.90;;;;;;5112784;28;20509;-73
2022/11/05 12:53:23;;;;;;;4.33;2.13;;;15.40;99.90;;;;;;5113007;28;20436;-74
2022/11/05 12:55:50;;;;;;;2.10;1.60;;;15.70;99.90;;;;;;5067110;28;20563;-74
2022/11/05 12:58:41;;;;;;;3.60;1.80;;;16.00;99.90;;;;;;5112147;28;20460;-74
2022/11/05 13:01:13;;;;;;;2.33;1.53;;;16.00;99.90;;;;;;5112797;28;20410;-74
2022/11/05 13:03:54;;;;;;;1.83;1.30;;;15.90;99.90;;;;;;5112780;28;20399;-74
2022/11/05 13:06:41;;;;;;;3.17;1.63;;;15.80;99.90;;;;;;5112418;28;20420;-73
2022/11/05 13:09:16;;;;;;;9.83;1.10;;;15.60;99.90;;;;;;5112450;28;20419;-74
2022/11/05 13:11:53;;;;;;;1.73;1.23;;;15.40;99.90;;;;;;5112656;28;20398;-74
2022/11/05 13:14:27;;;;;;;4.70;1.87;;;15.20;99.90;;;;;;5111043;28;20454;-74
2022/11/05 13:17:01;;;;;;;2.00;1.47;;;15.00;99.90;;;;;;5112536;28;20418;-74
2022/11/05 13:19:30;;;;;;;3.83;2.10;;;14.90;99.90;;;;;;5112490;28;20458;-73
2022/11/05 13:22:08;;;;;;;1.47;1.13;;;14.80;99.90;;;;;;5112181;28;20418;-73
2022/11/05 13:24:39;;;;;;;5.17;1.53;;;14.70;99.90;;;;;;5111988;27;20434;-73
2022/11/05 13:27:34;;;;;;;6.03;2.30;;;14.50;99.90;;;;;;5111018;28;20904;-73
2022/11/05 13:30:06;;;;;;;4.07;2.00;;;14.40;99.90;;;;;;5112326;28;20418;-73
2022/11/05 13:32:42;;;;;;;6.80;1.73;;;14.70;99.90;;;;;;5111544;28;20426;-73
2022/11/05 13:35:21;;;;;;;3.00;1.50;;;14.60;99.90;;;;;;5111978;28;20493;-73
2022/11/05 13:41:00;;;;;;;5.13;1.37;;;14.50;99.90;;;;;;5112124;28;20418;-73
2022/11/05 13:43:50;;;;;;;2.53;1.30;;;14.40;99.90;;;;;;5112063;28;20394;-74
2022/11/05 13:46:32;;;;;;;3.17;1.50;;;14.30;99.90;;;;;;5111773;28;20422;-73
2022/11/05 13:49:22;;;;;;;3.13;1.73;;;14.30;99.90;;;;;;5112153;28;20434;-73
2022/11/05 13:52:01;;;;;;;1.97;1.50;;;13.90;99.90;;;;;;5112336;28;20403;-73